sensor_id;sensor_type;location;lat;lon;timestamp;P1;durP1;ratioP1;P2;durP2;ratioP2
6131;SDS011;3097;42.692;23.278;2023-04-24T00:02:15;13.20;;;10.23;;
6131;SDS011;3097;42.692;23.278;2023-04-24T00:04:41;16.43;;;10.67;;
6131;SDS011;3097;42.692;23.278;2023-04-24T00:07:09;14.73;;;10.20;;
6131;SDS011;3097;42.692;23.278;2023-04-24T00:09:35;13.67;;;10.57;;
6131;SDS011;3097;42.692;23.278;2023-04-24T00:12:01;17.17;;;10.73;;
6131;SDS011;3097;42.692;23.278;2023-04-24T00:14:29;17.07;;;10.47;;
6131;SDS011;3097;42.692;23.278;2023-04-24T00:16:55;15.77;;;10.77;;
6131;SDS011;3097;42.692;23.278;2023-04-24T00:19:21;18.90;;;10.17;;
6131;SDS011;3097;42.692;23.278;2023-04-24T00:21:46;13.13;;;10.53;;
6131;SDS011;3097;42.692;23.278;2023-04-24T00:24:15;16.30;;;10.97;;
6131;SDS011;3097;42.692;23.278;2023-04-24T00:26:41;16.93;;;10.87;;
6131;SDS011;3097;42.692;23.278;2023-04-24T00:29:06;13.17;;;10.43;;
6131;SDS011;3097;42.692;23.278;2023-04-24T00:31:32;14.53;;;10.37;;
6131;SDS011;3097;42.692;23.278;2023-04-24T00:33:59;13.83;;;9.80;;
6131;SDS011;3097;42.692;23.278;2023-04-24T00:36:25;13.83;;;9.57;;
6131;SDS011;3097;42.692;23.278;2023-04-24T00:38:51;13.83;;;10.80;;
6131;SDS011;3097;42.692;23.278;2023-04-24T00:41:17;16.17;;;11.53;;
6131;SDS011;3097;42.692;23.278;2023-04-24T00:43:43;15.10;;;10.57;;
6131;SDS011;3097;42.692;23.278;2023-04-24T00:46:08;15.40;;;11.47;;
6131;SDS011;3097;42.692;23.278;2023-04-24T00:48:34;17.63;;;12.20;;
6131;SDS011;3097;42.692;23.278;2023-04-24T00:50:59;19.37;;;11.13;;
6131;SDS011;3097;42.692;23.278;2023-04-24T00:53:24;16.23;;;10.33;;
6131;SDS011;3097;42.692;23.278;2023-04-24T00:55:50;16.43;;;11.37;;
6131;SDS011;3097;42.692;23.278;2023-04-24T00:58:16;15.17;;;10.47;;
6131;SDS011;3097;42.692;23.278;2023-04-24T01:00:41;15.13;;;10.13;;
6131;SDS011;3097;42.692;23.278;2023-04-24T01:03:07;14.13;;;10.20;;
6131;SDS011;3097;42.692;23.278;2023-04-24T01:05:33;16.73;;;10.27;;
6131;SDS011;3097;42.692;23.278;2023-04-24T01:07:59;13.37;;;10.70;;
6131;SDS011;3097;42.692;23.278;2023-04-24T01:10:26;13.27;;;9.73;;
6131;SDS011;3097;42.692;23.278;2023-04-24T01:12:54;11.53;;;8.87;;
6131;SDS011;3097;42.692;23.278;2023-04-24T01:15:20;11.47;;;8.60;;
6131;SDS011;3097;42.692;23.278;2023-04-24T01:17:45;11.37;;;8.93;;
6131;SDS011;3097;42.692;23.278;2023-04-24T01:20:11;14.80;;;10.27;;
6131;SDS011;3097;42.692;23.278;2023-04-24T01:22:38;20.77;;;12.33;;
6131;SDS011;3097;42.692;23.278;2023-04-24T01:25:03;16.57;;;11.83;;
6131;SDS011;3097;42.692;23.278;2023-04-24T01:27:30;19.47;;;10.73;;
6131;SDS011;3097;42.692;23.278;2023-04-24T01:29:55;14.60;;;10.23;;
6131;SDS011;3097;42.692;23.278;2023-04-24T01:32:20;15.73;;;10.80;;
6131;SDS011;3097;42.692;23.278;2023-04-24T01:34:46;12.40;;;10.40;;
6131;SDS011;3097;42.692;23.278;2023-04-24T01:37:12;13.43;;;9.67;;
6131;SDS011;3097;42.692;23.278;2023-04-24T01:39:37;17.23;;;11.30;;
6131;SDS011;3097;42.692;23.278;2023-04-24T01:42:03;15.60;;;10.63;;
6131;SDS011;3097;42.692;23.278;2023-04-24T01:44:29;15.93;;;10.80;;
6131;SDS011;3097;42.692;23.278;2023-04-24T01:46:55;13.73;;;10.30;;
6131;SDS011;3097;42.692;23.278;2023-04-24T01:49:21;20.73;;;11.77;;
6131;SDS011;3097;42.692;23.278;2023-04-24T01:51:46;15.97;;;11.37;;
6131;SDS011;3097;42.692;23.278;2023-04-24T01:54:12;10.57;;;9.43;;
6131;SDS011;3097;42.692;23.278;2023-04-24T01:56:40;10.73;;;8.67;;
6131;SDS011;3097;42.692;23.278;2023-04-24T01:59:07;13.40;;;8.03;;
6131;SDS011;3097;42.692;23.278;2023-04-24T02:01:35;11.80;;;8.47;;
6131;SDS011;3097;42.692;23.278;2023-04-24T02:04:01;11.57;;;8.47;;
6131;SDS011;3097;42.692;23.278;2023-04-24T02:06:27;10.43;;;7.00;;
6131;SDS011;3097;42.692;23.278;2023-04-24T02:08:52;10.33;;;8.43;;
6131;SDS011;3097;42.692;23.278;2023-04-24T02:11:18;11.60;;;8.13;;
6131;SDS011;3097;42.692;23.278;2023-04-24T02:13:43;10.40;;;8.23;;
6131;SDS011;3097;42.692;23.278;2023-04-24T02:16:09;12.80;;;8.50;;
6131;SDS011;3097;42.692;23.278;2023-04-24T02:18:34;10.43;;;8.87;;
6131;SDS011;3097;42.692;23.278;2023-04-24T02:21:00;11.60;;;8.47;;
6131;SDS011;3097;42.692;23.278;2023-04-24T02:23:25;10.93;;;8.80;;
6131;SDS011;3097;42.692;23.278;2023-04-24T02:25:52;15.47;;;8.70;;
6131;SDS011;3097;42.692;23.278;2023-04-24T02:28:18;10.23;;;8.33;;
6131;SDS011;3097;42.692;23.278;2023-04-24T02:30:44;12.20;;;9.20;;
6131;SDS011;3097;42.692;23.278;2023-04-24T02:33:10;22.27;;;9.53;;
6131;SDS011;3097;42.692;23.278;2023-04-24T02:35:36;13.20;;;9.43;;
6131;SDS011;3097;42.692;23.278;2023-04-24T02:38:02;13.73;;;10.43;;
6131;SDS011;3097;42.692;23.278;2023-04-24T02:40:28;15.33;;;11.47;;
6131;SDS011;3097;42.692;23.278;2023-04-24T02:42:54;17.17;;;11.30;;
6131;SDS011;3097;42.692;23.278;2023-04-24T02:45:19;16.63;;;12.00;;
6131;SDS011;3097;42.692;23.278;2023-04-24T02:47:45;19.10;;;10.70;;
6131;SDS011;3097;42.692;23.278;2023-04-24T02:50:10;14.73;;;10.60;;
6131;SDS011;3097;42.692;23.278;2023-04-24T02:52:36;18.53;;;11.00;;
6131;SDS011;3097;42.692;23.278;2023-04-24T02:55:01;17.03;;;11.37;;
6131;SDS011;3097;42.692;23.278;2023-04-24T02:57:27;19.67;;;11.63;;
6131;SDS011;3097;42.692;23.278;2023-04-24T02:59:52;19.27;;;12.10;;
6131;SDS011;3097;42.692;23.278;2023-04-24T03:02:17;20.57;;;12.60;;
6131;SDS011;3097;42.692;23.278;2023-04-24T03:04:43;22.53;;;12.73;;
6131;SDS011;3097;42.692;23.278;2023-04-24T03:07:08;17.90;;;11.43;;
6131;SDS011;3097;42.692;23.278;2023-04-24T03:09:34;12.53;;;10.23;;
6131;SDS011;3097;42.692;23.278;2023-04-24T03:11:59;15.37;;;9.40;;
6131;SDS011;3097;42.692;23.278;2023-04-24T03:14:25;14.40;;;10.43;;
6131;SDS011;3097;42.692;23.278;2023-04-24T03:16:50;17.33;;;10.20;;
6131;SDS011;3097;42.692;23.278;2023-04-24T03:19:16;15.67;;;10.43;;
6131;SDS011;3097;42.692;23.278;2023-04-24T03:21:41;14.50;;;10.47;;
6131;SDS011;3097;42.692;23.278;2023-04-24T03:24:07;17.20;;;10.63;;
6131;SDS011;3097;42.692;23.278;2023-04-24T03:26:34;15.90;;;10.87;;
6131;SDS011;3097;42.692;23.278;2023-04-24T03:29:00;17.17;;;10.73;;
6131;SDS011;3097;42.692;23.278;2023-04-24T03:31:26;16.23;;;11.43;;
6131;SDS011;3097;42.692;23.278;2023-04-24T03:33:51;18.30;;;11.43;;
6131;SDS011;3097;42.692;23.278;2023-04-24T03:36:17;18.77;;;11.90;;
6131;SDS011;3097;42.692;23.278;2023-04-24T03:38:44;20.63;;;12.40;;
6131;SDS011;3097;42.692;23.278;2023-04-24T03:41:10;20.20;;;13.53;;
6131;SDS011;3097;42.692;23.278;2023-04-24T03:43:44;17.80;;;12.30;;
6131;SDS011;3097;42.692;23.278;2023-04-24T03:46:10;20.23;;;13.10;;
6131;SDS011;3097;42.692;23.278;2023-04-24T03:48:35;19.10;;;12.17;;
6131;SDS011;3097;42.692;23.278;2023-04-24T03:51:01;22.70;;;13.00;;
6131;SDS011;3097;42.692;23.278;2023-04-24T03:53:26;23.60;;;12.77;;
6131;SDS011;3097;42.692;23.278;2023-04-24T03:55:52;20.07;;;12.17;;
6131;SDS011;3097;42.692;23.278;2023-04-24T03:58:18;19.20;;;12.27;;
6131;SDS011;3097;42.692;23.278;2023-04-24T04:00:44;20.70;;;13.13;;
6131;SDS011;3097;42.692;23.278;2023-04-24T04:03:11;21.17;;;12.10;;
6131;SDS011;3097;42.692;23.278;2023-04-24T04:05:40;27.77;;;15.00;;
6131;SDS011;3097;42.692;23.278;2023-04-24T04:08:05;25.67;;;14.03;;
6131;SDS011;3097;42.692;23.278;2023-04-24T04:10:34;22.00;;;13.57;;
6131;SDS011;3097;42.692;23.278;2023-04-24T04:12:59;26.03;;;14.60;;
6131;SDS011;3097;42.692;23.278;2023-04-24T04:15:25;27.93;;;14.07;;
6131;SDS011;3097;42.692;23.278;2023-04-24T04:17:50;28.10;;;14.97;;
6131;SDS011;3097;42.692;23.278;2023-04-24T04:20:16;21.67;;;13.90;;
6131;SDS011;3097;42.692;23.278;2023-04-24T04:22:41;23.53;;;15.93;;
6131;SDS011;3097;42.692;23.278;2023-04-24T04:25:06;27.37;;;16.30;;
6131;SDS011;3097;42.692;23.278;2023-04-24T04:27:33;33.13;;;17.10;;
6131;SDS011;3097;42.692;23.278;2023-04-24T04:29:59;26.30;;;16.47;;
6131;SDS011;3097;42.692;23.278;2023-04-24T04:32:34;30.20;;;17.27;;
6131;SDS011;3097;42.692;23.278;2023-04-24T04:34:59;31.30;;;18.47;;
6131;SDS011;3097;42.692;23.278;2023-04-24T04:37:32;27.57;;;16.63;;
6131;SDS011;3097;42.692;23.278;2023-04-24T04:39:58;25.00;;;15.83;;
6131;SDS011;3097;42.692;23.278;2023-04-24T04:42:25;26.00;;;16.03;;
6131;SDS011;3097;42.692;23.278;2023-04-24T04:44:52;25.13;;;15.93;;
6131;SDS011;3097;42.692;23.278;2023-04-24T04:47:18;26.83;;;16.70;;
6131;SDS011;3097;42.692;23.278;2023-04-24T04:49:49;24.87;;;15.93;;
6131;SDS011;3097;42.692;23.278;2023-04-24T04:52:16;25.97;;;17.23;;
6131;SDS011;3097;42.692;23.278;2023-04-24T04:54:42;24.50;;;16.70;;
6131;SDS011;3097;42.692;23.278;2023-04-24T04:57:07;23.47;;;16.23;;
6131;SDS011;3097;42.692;23.278;2023-04-24T04:59:33;28.70;;;16.47;;
6131;SDS011;3097;42.692;23.278;2023-04-24T05:01:58;31.40;;;15.90;;
6131;SDS011;3097;42.692;23.278;2023-04-24T05:04:23;26.60;;;16.93;;
6131;SDS011;3097;42.692;23.278;2023-04-24T05:06:49;28.87;;;17.47;;
6131;SDS011;3097;42.692;23.278;2023-04-24T05:09:16;20.13;;;13.93;;
6131;SDS011;3097;42.692;23.278;2023-04-24T05:11:41;17.93;;;12.20;;
6131;SDS011;3097;42.692;23.278;2023-04-24T05:14:07;20.30;;;12.50;;
6131;SDS011;3097;42.692;23.278;2023-04-24T05:16:32;15.40;;;11.47;;
6131;SDS011;3097;42.692;23.278;2023-04-24T05:18:58;21.97;;;11.80;;
6131;SDS011;3097;42.692;23.278;2023-04-24T05:21:25;23.67;;;13.20;;
6131;SDS011;3097;42.692;23.278;2023-04-24T05:23:50;21.40;;;13.27;;
6131;SDS011;3097;42.692;23.278;2023-04-24T05:26:15;20.37;;;12.67;;
6131;SDS011;3097;42.692;23.278;2023-04-24T05:28:41;22.57;;;12.70;;
6131;SDS011;3097;42.692;23.278;2023-04-24T05:31:06;20.53;;;12.60;;
6131;SDS011;3097;42.692;23.278;2023-04-24T05:33:32;20.40;;;11.77;;
6131;SDS011;3097;42.692;23.278;2023-04-24T05:35:57;22.70;;;12.20;;
6131;SDS011;3097;42.692;23.278;2023-04-24T05:38:23;22.67;;;11.90;;
6131;SDS011;3097;42.692;23.278;2023-04-24T05:40:48;18.57;;;11.20;;
6131;SDS011;3097;42.692;23.278;2023-04-24T05:43:14;11.10;;;8.63;;
6131;SDS011;3097;42.692;23.278;2023-04-24T05:45:39;14.37;;;8.90;;
6131;SDS011;3097;42.692;23.278;2023-04-24T05:48:05;10.23;;;8.03;;
6131;SDS011;3097;42.692;23.278;2023-04-24T05:50:30;12.57;;;8.20;;
6131;SDS011;3097;42.692;23.278;2023-04-24T05:52:56;9.37;;;7.70;;
6131;SDS011;3097;42.692;23.278;2023-04-24T05:55:26;13.07;;;7.70;;
6131;SDS011;3097;42.692;23.278;2023-04-24T05:57:52;10.40;;;7.57;;
6131;SDS011;3097;42.692;23.278;2023-04-24T06:00:17;8.70;;;7.77;;
6131;SDS011;3097;42.692;23.278;2023-04-24T06:02:44;10.90;;;8.13;;
6131;SDS011;3097;42.692;23.278;2023-04-24T06:05:10;8.83;;;7.70;;
6131;SDS011;3097;42.692;23.278;2023-04-24T06:07:36;9.30;;;8.27;;
6131;SDS011;3097;42.692;23.278;2023-04-24T06:10:01;8.60;;;7.70;;
6131;SDS011;3097;42.692;23.278;2023-04-24T06:12:26;12.60;;;8.17;;
6131;SDS011;3097;42.692;23.278;2023-04-24T06:14:52;8.53;;;7.37;;
6131;SDS011;3097;42.692;23.278;2023-04-24T06:17:19;9.30;;;8.30;;
6131;SDS011;3097;42.692;23.278;2023-04-24T06:19:44;11.30;;;8.53;;
6131;SDS011;3097;42.692;23.278;2023-04-24T06:22:10;8.67;;;7.77;;
6131;SDS011;3097;42.692;23.278;2023-04-24T06:24:35;9.27;;;8.27;;
6131;SDS011;3097;42.692;23.278;2023-04-24T06:27:01;9.47;;;8.43;;
6131;SDS011;3097;42.692;23.278;2023-04-24T06:29:27;9.63;;;8.73;;
6131;SDS011;3097;42.692;23.278;2023-04-24T06:31:52;8.93;;;7.90;;
6131;SDS011;3097;42.692;23.278;2023-04-24T06:34:18;9.37;;;8.47;;
6131;SDS011;3097;42.692;23.278;2023-04-24T06:36:43;9.23;;;8.43;;
6131;SDS011;3097;42.692;23.278;2023-04-24T06:39:09;10.33;;;8.23;;
6131;SDS011;3097;42.692;23.278;2023-04-24T06:41:34;15.63;;;12.67;;
6131;SDS011;3097;42.692;23.278;2023-04-24T06:44:00;9.57;;;7.77;;
6131;SDS011;3097;42.692;23.278;2023-04-24T06:46:26;8.83;;;7.73;;
6131;SDS011;3097;42.692;23.278;2023-04-24T06:48:55;9.03;;;8.23;;
6131;SDS011;3097;42.692;23.278;2023-04-24T06:51:24;8.50;;;7.70;;
6131;SDS011;3097;42.692;23.278;2023-04-24T06:53:51;9.60;;;8.27;;
6131;SDS011;3097;42.692;23.278;2023-04-24T06:56:17;9.93;;;7.90;;
6131;SDS011;3097;42.692;23.278;2023-04-24T06:58:42;8.90;;;7.80;;
6131;SDS011;3097;42.692;23.278;2023-04-24T07:01:08;8.33;;;7.50;;
6131;SDS011;3097;42.692;23.278;2023-04-24T07:03:34;9.87;;;8.10;;
6131;SDS011;3097;42.692;23.278;2023-04-24T07:06:00;10.43;;;9.00;;
6131;SDS011;3097;42.692;23.278;2023-04-24T07:08:25;8.83;;;8.03;;
6131;SDS011;3097;42.692;23.278;2023-04-24T07:10:51;9.60;;;8.60;;
6131;SDS011;3097;42.692;23.278;2023-04-24T07:13:17;10.97;;;7.80;;
6131;SDS011;3097;42.692;23.278;2023-04-24T07:15:42;13.00;;;8.40;;
6131;SDS011;3097;42.692;23.278;2023-04-24T07:18:08;9.93;;;8.03;;
6131;SDS011;3097;42.692;23.278;2023-04-24T07:20:34;8.50;;;7.87;;
6131;SDS011;3097;42.692;23.278;2023-04-24T07:22:59;10.23;;;8.17;;
6131;SDS011;3097;42.692;23.278;2023-04-24T07:25:25;9.17;;;8.30;;
6131;SDS011;3097;42.692;23.278;2023-04-24T07:27:50;10.20;;;8.07;;
6131;SDS011;3097;42.692;23.278;2023-04-24T07:30:16;8.57;;;7.83;;
6131;SDS011;3097;42.692;23.278;2023-04-24T07:32:41;9.80;;;8.13;;
6131;SDS011;3097;42.692;23.278;2023-04-24T07:35:07;8.77;;;7.90;;
6131;SDS011;3097;42.692;23.278;2023-04-24T07:37:34;9.27;;;8.47;;
6131;SDS011;3097;42.692;23.278;2023-04-24T07:40:00;15.93;;;11.17;;
6131;SDS011;3097;42.692;23.278;2023-04-24T07:42:25;9.23;;;8.43;;
6131;SDS011;3097;42.692;23.278;2023-04-24T07:44:50;10.40;;;9.03;;
6131;SDS011;3097;42.692;23.278;2023-04-24T07:47:16;9.77;;;8.57;;
6131;SDS011;3097;42.692;23.278;2023-04-24T07:49:42;11.20;;;9.57;;
6131;SDS011;3097;42.692;23.278;2023-04-24T07:52:07;11.87;;;9.40;;
6131;SDS011;3097;42.692;23.278;2023-04-24T07:54:33;12.93;;;8.63;;
6131;SDS011;3097;42.692;23.278;2023-04-24T07:56:58;10.83;;;8.33;;
6131;SDS011;3097;42.692;23.278;2023-04-24T07:59:25;9.10;;;8.27;;
6131;SDS011;3097;42.692;23.278;2023-04-24T08:01:50;11.60;;;8.63;;
6131;SDS011;3097;42.692;23.278;2023-04-24T08:04:16;10.37;;;8.37;;
6131;SDS011;3097;42.692;23.278;2023-04-24T08:06:42;8.77;;;8.00;;
6131;SDS011;3097;42.692;23.278;2023-04-24T08:09:08;8.63;;;7.83;;
6131;SDS011;3097;42.692;23.278;2023-04-24T08:11:34;9.33;;;8.53;;
6131;SDS011;3097;42.692;23.278;2023-04-24T08:13:59;12.03;;;9.20;;
6131;SDS011;3097;42.692;23.278;2023-04-24T08:16:25;11.20;;;8.77;;
6131;SDS011;3097;42.692;23.278;2023-04-24T08:18:51;9.33;;;8.40;;
6131;SDS011;3097;42.692;23.278;2023-04-24T08:21:16;8.87;;;8.00;;
6131;SDS011;3097;42.692;23.278;2023-04-24T08:23:44;9.40;;;8.50;;
6131;SDS011;3097;42.692;23.278;2023-04-24T08:26:10;10.70;;;8.77;;
6131;SDS011;3097;42.692;23.278;2023-04-24T08:28:36;9.03;;;8.13;;
6131;SDS011;3097;42.692;23.278;2023-04-24T08:31:02;8.03;;;7.27;;
6131;SDS011;3097;42.692;23.278;2023-04-24T08:33:27;7.70;;;6.90;;
6131;SDS011;3097;42.692;23.278;2023-04-24T08:35:57;9.30;;;8.40;;
6131;SDS011;3097;42.692;23.278;2023-04-24T08:38:23;9.27;;;8.37;;
6131;SDS011;3097;42.692;23.278;2023-04-24T08:40:48;8.77;;;7.97;;
6131;SDS011;3097;42.692;23.278;2023-04-24T08:43:14;9.73;;;8.60;;
6131;SDS011;3097;42.692;23.278;2023-04-24T08:45:41;12.57;;;9.87;;
6131;SDS011;3097;42.692;23.278;2023-04-24T08:48:07;10.93;;;8.83;;
6131;SDS011;3097;42.692;23.278;2023-04-24T08:50:32;9.07;;;8.03;;
6131;SDS011;3097;42.692;23.278;2023-04-24T08:52:59;9.37;;;8.03;;
6131;SDS011;3097;42.692;23.278;2023-04-24T08:55:26;9.37;;;7.50;;
6131;SDS011;3097;42.692;23.278;2023-04-24T08:57:52;8.53;;;7.83;;
6131;SDS011;3097;42.692;23.278;2023-04-24T09:00:19;9.07;;;7.77;;
6131;SDS011;3097;42.692;23.278;2023-04-24T09:02:46;10.93;;;8.53;;
6131;SDS011;3097;42.692;23.278;2023-04-24T09:05:16;9.23;;;8.43;;
6131;SDS011;3097;42.692;23.278;2023-04-24T09:07:44;8.33;;;7.63;;
6131;SDS011;3097;42.692;23.278;2023-04-24T09:10:11;8.47;;;7.63;;
6131;SDS011;3097;42.692;23.278;2023-04-24T09:12:37;10.60;;;7.73;;
6131;SDS011;3097;42.692;23.278;2023-04-24T09:15:03;8.53;;;7.80;;
6131;SDS011;3097;42.692;23.278;2023-04-24T09:17:30;9.37;;;8.13;;
6131;SDS011;3097;42.692;23.278;2023-04-24T09:19:56;8.90;;;8.10;;
6131;SDS011;3097;42.692;23.278;2023-04-24T09:22:21;10.57;;;7.60;;
6131;SDS011;3097;42.692;23.278;2023-04-24T09:24:47;10.97;;;7.60;;
6131;SDS011;3097;42.692;23.278;2023-04-24T09:27:13;9.07;;;8.17;;
6131;SDS011;3097;42.692;23.278;2023-04-24T09:29:52;7.47;;;6.83;;
6131;SDS011;3097;42.692;23.278;2023-04-24T09:32:19;8.03;;;7.43;;
6131;SDS011;3097;42.692;23.278;2023-04-24T09:34:47;8.03;;;7.30;;
6131;SDS011;3097;42.692;23.278;2023-04-24T09:37:26;9.40;;;7.63;;
6131;SDS011;3097;42.692;23.278;2023-04-24T09:40:11;8.80;;;7.60;;
6131;SDS011;3097;42.692;23.278;2023-04-24T09:42:51;8.53;;;7.10;;
6131;SDS011;3097;42.692;23.278;2023-04-24T09:45:18;8.37;;;7.00;;
6131;SDS011;3097;42.692;23.278;2023-04-24T09:47:43;8.67;;;7.33;;
6131;SDS011;3097;42.692;23.278;2023-04-24T09:50:13;9.03;;;7.17;;
6131;SDS011;3097;42.692;23.278;2023-04-24T09:52:43;8.17;;;7.47;;
6131;SDS011;3097;42.692;23.278;2023-04-24T09:55:17;7.53;;;6.83;;
6131;SDS011;3097;42.692;23.278;2023-04-24T09:57:47;9.33;;;7.07;;
6131;SDS011;3097;42.692;23.278;2023-04-24T10:00:24;7.70;;;7.00;;
6131;SDS011;3097;42.692;23.278;2023-04-24T10:03:01;7.30;;;6.60;;
6131;SDS011;3097;42.692;23.278;2023-04-24T10:05:36;10.67;;;7.10;;
6131;SDS011;3097;42.692;23.278;2023-04-24T10:08:05;8.80;;;6.73;;
6131;SDS011;3097;42.692;23.278;2023-04-24T10:10:32;8.30;;;6.97;;
6131;SDS011;3097;42.692;23.278;2023-04-24T10:12:59;6.90;;;6.37;;
6131;SDS011;3097;42.692;23.278;2023-04-24T10:15:26;7.10;;;6.50;;
6131;SDS011;3097;42.692;23.278;2023-04-24T10:17:52;14.07;;;9.83;;
6131;SDS011;3097;42.692;23.278;2023-04-24T10:20:21;7.70;;;6.33;;
6131;SDS011;3097;42.692;23.278;2023-04-24T10:22:49;20.60;;;13.80;;
6131;SDS011;3097;42.692;23.278;2023-04-24T10:25:21;15.10;;;11.30;;
6131;SDS011;3097;42.692;23.278;2023-04-24T10:27:49;6.43;;;5.87;;
6131;SDS011;3097;42.692;23.278;2023-04-24T10:30:16;7.67;;;6.57;;
6131;SDS011;3097;42.692;23.278;2023-04-24T10:32:43;10.97;;;6.47;;
6131;SDS011;3097;42.692;23.278;2023-04-24T10:35:09;7.73;;;6.13;;
6131;SDS011;3097;42.692;23.278;2023-04-24T10:37:38;6.70;;;6.17;;
6131;SDS011;3097;42.692;23.278;2023-04-24T10:40:07;8.37;;;6.20;;
6131;SDS011;3097;42.692;23.278;2023-04-24T10:42:33;7.83;;;6.50;;
6131;SDS011;3097;42.692;23.278;2023-04-24T10:45:04;7.40;;;6.80;;
6131;SDS011;3097;42.692;23.278;2023-04-24T10:47:39;8.20;;;6.20;;
6131;SDS011;3097;42.692;23.278;2023-04-24T10:50:12;9.97;;;6.63;;
6131;SDS011;3097;42.692;23.278;2023-04-24T10:52:44;6.90;;;6.30;;
6131;SDS011;3097;42.692;23.278;2023-04-24T10:55:14;6.77;;;6.10;;
6131;SDS011;3097;42.692;23.278;2023-04-24T10:57:40;9.80;;;6.20;;
6131;SDS011;3097;42.692;23.278;2023-04-24T11:00:26;7.20;;;6.50;;
6131;SDS011;3097;42.692;23.278;2023-04-24T11:02:52;6.80;;;6.23;;
6131;SDS011;3097;42.692;23.278;2023-04-24T11:05:19;7.67;;;5.80;;
6131;SDS011;3097;42.692;23.278;2023-04-24T11:10:45;6.40;;;5.80;;
6131;SDS011;3097;42.692;23.278;2023-04-24T11:13:21;5.90;;;5.50;;
6131;SDS011;3097;42.692;23.278;2023-04-24T11:18:40;6.20;;;5.70;;
6131;SDS011;3097;42.692;23.278;2023-04-24T11:21:16;7.10;;;6.20;;
6131;SDS011;3097;42.692;23.278;2023-04-24T11:23:42;7.07;;;5.63;;
6131;SDS011;3097;42.692;23.278;2023-04-24T11:26:18;6.43;;;5.93;;
6131;SDS011;3097;42.692;23.278;2023-04-24T11:28:49;6.57;;;6.07;;
6131;SDS011;3097;42.692;23.278;2023-04-24T11:34:11;6.90;;;6.13;;
6131;SDS011;3097;42.692;23.278;2023-04-24T11:36:39;5.60;;;5.00;;
6131;SDS011;3097;42.692;23.278;2023-04-24T11:39:07;5.50;;;5.10;;
6131;SDS011;3097;42.692;23.278;2023-04-24T11:41:33;5.93;;;5.53;;
6131;SDS011;3097;42.692;23.278;2023-04-24T11:43:59;5.90;;;5.40;;
6131;SDS011;3097;42.692;23.278;2023-04-24T11:46:28;6.53;;;5.67;;
6131;SDS011;3097;42.692;23.278;2023-04-24T11:48:58;5.97;;;5.47;;
6131;SDS011;3097;42.692;23.278;2023-04-24T11:51:25;6.20;;;5.70;;
6131;SDS011;3097;42.692;23.278;2023-04-24T11:53:54;7.80;;;5.17;;
6131;SDS011;3097;42.692;23.278;2023-04-24T11:56:21;6.30;;;5.80;;
6131;SDS011;3097;42.692;23.278;2023-04-24T11:58:53;6.00;;;5.60;;
6131;SDS011;3097;42.692;23.278;2023-04-24T12:01:19;6.77;;;5.70;;
6131;SDS011;3097;42.692;23.278;2023-04-24T12:03:49;37.77;;;23.70;;
6131;SDS011;3097;42.692;23.278;2023-04-24T12:06:24;7.10;;;6.50;;
6131;SDS011;3097;42.692;23.278;2023-04-24T12:08:53;6.53;;;6.03;;
6131;SDS011;3097;42.692;23.278;2023-04-24T12:11:20;6.40;;;5.83;;
6131;SDS011;3097;42.692;23.278;2023-04-24T12:13:45;6.50;;;5.90;;
6131;SDS011;3097;42.692;23.278;2023-04-24T12:16:11;6.50;;;6.00;;
6131;SDS011;3097;42.692;23.278;2023-04-24T12:18:46;5.70;;;5.30;;
6131;SDS011;3097;42.692;23.278;2023-04-24T12:21:29;6.00;;;5.40;;
6131;SDS011;3097;42.692;23.278;2023-04-24T12:23:56;6.40;;;5.80;;
6131;SDS011;3097;42.692;23.278;2023-04-24T12:26:23;5.80;;;5.40;;
6131;SDS011;3097;42.692;23.278;2023-04-24T12:28:49;6.47;;;5.40;;
6131;SDS011;3097;42.692;23.278;2023-04-24T12:31:17;6.23;;;5.43;;
6131;SDS011;3097;42.692;23.278;2023-04-24T12:33:46;8.30;;;7.50;;
6131;SDS011;3097;42.692;23.278;2023-04-24T12:36:11;5.93;;;5.53;;
6131;SDS011;3097;42.692;23.278;2023-04-24T12:38:37;5.97;;;5.50;;
6131;SDS011;3097;42.692;23.278;2023-04-24T12:41:07;6.43;;;5.93;;
6131;SDS011;3097;42.692;23.278;2023-04-24T12:43:34;6.77;;;6.27;;
6131;SDS011;3097;42.692;23.278;2023-04-24T12:46:00;6.90;;;6.40;;
6131;SDS011;3097;42.692;23.278;2023-04-24T12:48:26;6.37;;;5.97;;
6131;SDS011;3097;42.692;23.278;2023-04-24T12:50:52;15.37;;;11.77;;
6131;SDS011;3097;42.692;23.278;2023-04-24T12:53:17;7.00;;;6.40;;
6131;SDS011;3097;42.692;23.278;2023-04-24T12:55:43;6.23;;;5.83;;
6131;SDS011;3097;42.692;23.278;2023-04-24T12:58:10;6.07;;;5.57;;
6131;SDS011;3097;42.692;23.278;2023-04-24T13:00:35;6.77;;;5.60;;
6131;SDS011;3097;42.692;23.278;2023-04-24T13:03:01;6.83;;;6.33;;
6131;SDS011;3097;42.692;23.278;2023-04-24T13:05:27;6.93;;;6.33;;
6131;SDS011;3097;42.692;23.278;2023-04-24T13:07:53;8.10;;;6.33;;
6131;SDS011;3097;42.692;23.278;2023-04-24T13:10:18;6.97;;;6.30;;
6131;SDS011;3097;42.692;23.278;2023-04-24T13:12:44;6.37;;;5.97;;
6131;SDS011;3097;42.692;23.278;2023-04-24T13:15:11;6.27;;;5.60;;
6131;SDS011;3097;42.692;23.278;2023-04-24T13:17:37;6.20;;;5.80;;
6131;SDS011;3097;42.692;23.278;2023-04-24T13:20:02;5.80;;;5.23;;
6131;SDS011;3097;42.692;23.278;2023-04-24T13:22:28;6.10;;;5.60;;
6131;SDS011;3097;42.692;23.278;2023-04-24T13:24:53;6.00;;;5.60;;
6131;SDS011;3097;42.692;23.278;2023-04-24T13:27:19;5.23;;;4.83;;
6131;SDS011;3097;42.692;23.278;2023-04-24T13:29:45;6.40;;;5.80;;
6131;SDS011;3097;42.692;23.278;2023-04-24T13:32:10;6.67;;;6.07;;
6131;SDS011;3097;42.692;23.278;2023-04-24T13:34:36;5.37;;;4.87;;
6131;SDS011;3097;42.692;23.278;2023-04-24T13:37:02;6.00;;;5.50;;
6131;SDS011;3097;42.692;23.278;2023-04-24T13:39:28;10.53;;;5.43;;
6131;SDS011;3097;42.692;23.278;2023-04-24T13:41:54;6.37;;;5.10;;
6131;SDS011;3097;42.692;23.278;2023-04-24T13:44:20;6.10;;;5.60;;
6131;SDS011;3097;42.692;23.278;2023-04-24T13:46:48;7.93;;;6.53;;
6131;SDS011;3097;42.692;23.278;2023-04-24T13:49:15;6.67;;;6.07;;
6131;SDS011;3097;42.692;23.278;2023-04-24T13:51:41;10.93;;;9.63;;
6131;SDS011;3097;42.692;23.278;2023-04-24T13:54:07;6.50;;;6.00;;
6131;SDS011;3097;42.692;23.278;2023-04-24T13:56:32;24.40;;;17.03;;
6131;SDS011;3097;42.692;23.278;2023-04-24T13:58:58;19.43;;;13.57;;
6131;SDS011;3097;42.692;23.278;2023-04-24T14:01:23;12.37;;;8.67;;
6131;SDS011;3097;42.692;23.278;2023-04-24T14:03:53;5.90;;;5.50;;
6131;SDS011;3097;42.692;23.278;2023-04-24T14:06:19;5.47;;;5.07;;
6131;SDS011;3097;42.692;23.278;2023-04-24T14:08:45;5.30;;;4.80;;
6131;SDS011;3097;42.692;23.278;2023-04-24T14:11:11;5.60;;;5.20;;
6131;SDS011;3097;42.692;23.278;2023-04-24T14:13:37;4.90;;;4.60;;
6131;SDS011;3097;42.692;23.278;2023-04-24T14:16:03;7.90;;;5.10;;
6131;SDS011;3097;42.692;23.278;2023-04-24T14:18:29;5.23;;;4.83;;
6131;SDS011;3097;42.692;23.278;2023-04-24T14:20:55;5.13;;;4.73;;
6131;SDS011;3097;42.692;23.278;2023-04-24T14:23:21;4.70;;;4.33;;
6131;SDS011;3097;42.692;23.278;2023-04-24T14:25:46;5.13;;;4.73;;
6131;SDS011;3097;42.692;23.278;2023-04-24T14:28:15;4.93;;;4.53;;
6131;SDS011;3097;42.692;23.278;2023-04-24T14:30:41;5.47;;;4.93;;
6131;SDS011;3097;42.692;23.278;2023-04-24T14:33:07;5.33;;;4.93;;
6131;SDS011;3097;42.692;23.278;2023-04-24T14:35:32;5.43;;;4.97;;
6131;SDS011;3097;42.692;23.278;2023-04-24T14:37:59;5.20;;;4.73;;
6131;SDS011;3097;42.692;23.278;2023-04-24T14:40:24;5.50;;;5.00;;
6131;SDS011;3097;42.692;23.278;2023-04-24T14:42:50;5.47;;;5.10;;
6131;SDS011;3097;42.692;23.278;2023-04-24T14:45:15;5.30;;;4.90;;
6131;SDS011;3097;42.692;23.278;2023-04-24T14:47:41;5.00;;;4.70;;
6131;SDS011;3097;42.692;23.278;2023-04-24T14:50:06;5.07;;;4.63;;
6131;SDS011;3097;42.692;23.278;2023-04-24T14:52:33;5.77;;;5.37;;
6131;SDS011;3097;42.692;23.278;2023-04-24T14:54:58;4.90;;;4.50;;
6131;SDS011;3097;42.692;23.278;2023-04-24T14:57:24;8.87;;;4.70;;